Brigadeiro Lysias Rodrigues Airport
SBPJ : now visible

Airfield :











YOU CAN JOIN US ON...

 
LOGIN :

Register | Disclaimer

   EN    FR    IT 

 









Legend :    VFR   Marginal VFR   IFR   Intensive IFR   Very Intensive IFR
Visi :
Ceiling :
>= 8 km
>= 3000ft
5 to 8 km
1000 to 3000 ft
1500m to 5 km
500 to 1000 ft
800 to 1500m
200 to 500 ft
< 800m
< 200 ft
Symbols :   Thunderstorms  Fog  Heavy snow  Heavy precipitations  Wind > 20 kt






- Airport Elevation : 774 ft
- IATA code : PMW


SBPJ - Brigadeiro Lysias Rodrigues

CURRENT METAR :
  • 280600Z 00000KT 9999 TS VCSH FEW010 SCT020 FEW030CB ///// Q1012

EXPIRED METARs :
  • 280500Z 35004KT 9999 TS FEW018 FEW030CB SCT070 ///// Q1013
  • 280400Z 36003KT 9999 VCTS FEW018 FEW030CB SCT050 ///// Q1013

TAF TAF SBPJ
Valid from the 28 at 06:00 until the 29 at 06:00 UTC


280400Z 2806/2906 14008KT 9999 SCT020 TN24/2807Z TX29/2818Z
BECMG 2812/2814 10007KT SCT020 FEW025TCU
TEMPO 2816/2820 6000 TSRA SCT020 FEW035CB
BECMG 2822/2824 SCT020 RMK PES



MET'MAP, your aeronautical weather chart ! - Copyright ORBIFLY December 2007 - Disclaimer

ORBIFLY MET'MAP TEAM :

Programming & Development : Alexandra Zaïnal
Concept & original design : Baudouin d'Aumeries
Assistance for programming : Marc-Olivier Méhu
Technical & hardware support : Manuel Goepfert

Contact : metmap@orbifly.com




SOURCES & CREDITS :

   NOAA       Earth
Advisory